sensor_id;sensor_type;location;lat;lon;timestamp;temperature;humidity
12166;DHT22;6146;48.128;11.476;2024-02-14T00:01:00;3.20;99.90
12166;DHT22;6146;48.128;11.476;2024-02-14T00:03:26;3.00;99.90
12166;DHT22;6146;48.128;11.476;2024-02-14T00:05:52;3.00;99.90
12166;DHT22;6146;48.128;11.476;2024-02-14T00:08:18;3.00;99.90
12166;DHT22;6146;48.128;11.476;2024-02-14T00:10:43;3.00;99.90
12166;DHT22;6146;48.128;11.476;2024-02-14T00:13:10;3.00;99.90
12166;DHT22;6146;48.128;11.476;2024-02-14T00:15:36;3.00;99.90
12166;DHT22;6146;48.128;11.476;2024-02-14T00:18:02;3.00;99.90
12166;DHT22;6146;48.128;11.476;2024-02-14T00:20:28;3.00;99.90
12166;DHT22;6146;48.128;11.476;2024-02-14T00:22:53;3.00;99.90
12166;DHT22;6146;48.128;11.476;2024-02-14T00:25:19;3.00;99.90
12166;DHT22;6146;48.128;11.476;2024-02-14T00:27:45;3.00;99.90
12166;DHT22;6146;48.128;11.476;2024-02-14T00:30:11;3.00;99.90
12166;DHT22;6146;48.128;11.476;2024-02-14T00:32:36;3.00;99.90
12166;DHT22;6146;48.128;11.476;2024-02-14T00:35:02;3.00;99.90
12166;DHT22;6146;48.128;11.476;2024-02-14T00:37:28;3.00;99.90
12166;DHT22;6146;48.128;11.476;2024-02-14T00:39:54;3.10;99.90
12166;DHT22;6146;48.128;11.476;2024-02-14T00:42:21;3.10;99.90
12166;DHT22;6146;48.128;11.476;2024-02-14T00:44:47;3.20;99.90
12166;DHT22;6146;48.128;11.476;2024-02-14T00:47:12;3.30;99.90
12166;DHT22;6146;48.128;11.476;2024-02-14T00:49:38;3.30;99.90
12166;DHT22;6146;48.128;11.476;2024-02-14T00:52:04;3.30;99.90
12166;DHT22;6146;48.128;11.476;2024-02-14T00:54:30;3.40;99.90
12166;DHT22;6146;48.128;11.476;2024-02-14T00:56:55;3.50;99.90
12166;DHT22;6146;48.128;11.476;2024-02-14T00:59:21;3.60;99.90
12166;DHT22;6146;48.128;11.476;2024-02-14T01:01:46;3.60;99.90
12166;DHT22;6146;48.128;11.476;2024-02-14T01:04:12;3.60;99.90
12166;DHT22;6146;48.128;11.476;2024-02-14T01:06:38;3.60;99.90
12166;DHT22;6146;48.128;11.476;2024-02-14T01:09:03;3.70;99.90
12166;DHT22;6146;48.128;11.476;2024-02-14T01:11:29;3.70;99.90
12166;DHT22;6146;48.128;11.476;2024-02-14T01:13:55;3.70;99.90
12166;DHT22;6146;48.128;11.476;2024-02-14T01:16:20;3.70;99.90
12166;DHT22;6146;48.128;11.476;2024-02-14T01:18:46;3.70;99.90
12166;DHT22;6146;48.128;11.476;2024-02-14T01:21:11;3.80;99.90
12166;DHT22;6146;48.128;11.476;2024-02-14T01:23:37;3.80;99.90
12166;DHT22;6146;48.128;11.476;2024-02-14T01:26:03;3.80;99.90
12166;DHT22;6146;48.128;11.476;2024-02-14T01:28:29;3.90;99.90
12166;DHT22;6146;48.128;11.476;2024-02-14T01:30:54;3.80;99.90
12166;DHT22;6146;48.128;11.476;2024-02-14T01:33:22;3.90;99.90
12166;DHT22;6146;48.128;11.476;2024-02-14T01:35:48;3.90;99.90
12166;DHT22;6146;48.128;11.476;2024-02-14T01:38:13;3.90;99.90
12166;DHT22;6146;48.128;11.476;2024-02-14T01:40:42;3.90;99.90
12166;DHT22;6146;48.128;11.476;2024-02-14T01:43:08;3.90;99.90
12166;DHT22;6146;48.128;11.476;2024-02-14T01:45:33;4.00;99.90
12166;DHT22;6146;48.128;11.476;2024-02-14T01:47:59;4.10;99.90
12166;DHT22;6146;48.128;11.476;2024-02-14T01:50:25;4.10;99.90
12166;DHT22;6146;48.128;11.476;2024-02-14T01:52:56;4.10;99.90
12166;DHT22;6146;48.128;11.476;2024-02-14T01:55:23;4.10;99.90
12166;DHT22;6146;48.128;11.476;2024-02-14T01:57:49;4.00;99.90
12166;DHT22;6146;48.128;11.476;2024-02-14T02:00:14;4.00;99.90
12166;DHT22;6146;48.128;11.476;2024-02-14T02:02:43;4.00;99.90
12166;DHT22;6146;48.128;11.476;2024-02-14T02:05:09;4.00;99.90
12166;DHT22;6146;48.128;11.476;2024-02-14T02:07:35;3.90;99.90
12166;DHT22;6146;48.128;11.476;2024-02-14T02:10:05;3.90;99.90
12166;DHT22;6146;48.128;11.476;2024-02-14T02:12:31;4.00;99.90
12166;DHT22;6146;48.128;11.476;2024-02-14T02:14:56;4.00;99.90
12166;DHT22;6146;48.128;11.476;2024-02-14T02:17:22;4.00;99.90
12166;DHT22;6146;48.128;11.476;2024-02-14T02:19:48;4.00;99.90
12166;DHT22;6146;48.128;11.476;2024-02-14T02:22:13;4.00;99.90
12166;DHT22;6146;48.128;11.476;2024-02-14T02:24:39;4.10;99.90
12166;DHT22;6146;48.128;11.476;2024-02-14T02:27:04;4.00;99.90
12166;DHT22;6146;48.128;11.476;2024-02-14T02:29:30;4.00;99.90
12166;DHT22;6146;48.128;11.476;2024-02-14T02:31:57;4.00;99.90
12166;DHT22;6146;48.128;11.476;2024-02-14T02:34:23;4.00;99.90
12166;DHT22;6146;48.128;11.476;2024-02-14T02:36:49;3.90;99.90
12166;DHT22;6146;48.128;11.476;2024-02-14T02:39:16;4.00;99.90
12166;DHT22;6146;48.128;11.476;2024-02-14T02:41:42;4.00;99.90
12166;DHT22;6146;48.128;11.476;2024-02-14T02:44:07;4.00;99.90
12166;DHT22;6146;48.128;11.476;2024-02-14T02:46:33;4.00;99.90
12166;DHT22;6146;48.128;11.476;2024-02-14T02:48:58;4.00;99.90
12166;DHT22;6146;48.128;11.476;2024-02-14T02:51:24;4.00;99.90
12166;DHT22;6146;48.128;11.476;2024-02-14T02:53:50;4.00;99.90
12166;DHT22;6146;48.128;11.476;2024-02-14T02:56:17;4.00;99.90
12166;DHT22;6146;48.128;11.476;2024-02-14T02:58:44;4.10;99.90
12166;DHT22;6146;48.128;11.476;2024-02-14T03:01:10;4.10;99.90
12166;DHT22;6146;48.128;11.476;2024-02-14T03:03:37;4.10;99.90
12166;DHT22;6146;48.128;11.476;2024-02-14T03:06:04;4.10;99.90
12166;DHT22;6146;48.128;11.476;2024-02-14T03:08:30;4.10;99.90
12166;DHT22;6146;48.128;11.476;2024-02-14T03:10:56;4.10;99.90
12166;DHT22;6146;48.128;11.476;2024-02-14T03:13:25;4.20;99.90
12166;DHT22;6146;48.128;11.476;2024-02-14T03:15:52;4.10;99.90
12166;DHT22;6146;48.128;11.476;2024-02-14T03:18:17;4.20;99.90
12166;DHT22;6146;48.128;11.476;2024-02-14T03:20:43;4.20;99.90
12166;DHT22;6146;48.128;11.476;2024-02-14T03:23:08;4.20;99.90
12166;DHT22;6146;48.128;11.476;2024-02-14T03:25:34;4.20;99.90
12166;DHT22;6146;48.128;11.476;2024-02-14T03:28:02;4.20;99.90
12166;DHT22;6146;48.128;11.476;2024-02-14T03:30:34;4.20;99.90
12166;DHT22;6146;48.128;11.476;2024-02-14T03:33:00;4.20;99.90
12166;DHT22;6146;48.128;11.476;2024-02-14T03:35:25;4.10;99.90
12166;DHT22;6146;48.128;11.476;2024-02-14T03:37:52;4.10;99.90
12166;DHT22;6146;48.128;11.476;2024-02-14T03:40:18;4.00;99.90
12166;DHT22;6146;48.128;11.476;2024-02-14T03:42:47;4.00;99.90
12166;DHT22;6146;48.128;11.476;2024-02-14T03:45:13;4.00;99.90
12166;DHT22;6146;48.128;11.476;2024-02-14T03:47:39;3.90;99.90
12166;DHT22;6146;48.128;11.476;2024-02-14T03:50:06;3.90;99.90
12166;DHT22;6146;48.128;11.476;2024-02-14T03:52:32;3.80;99.90
12166;DHT22;6146;48.128;11.476;2024-02-14T03:54:59;3.70;99.90
12166;DHT22;6146;48.128;11.476;2024-02-14T03:57:25;3.70;99.90
12166;DHT22;6146;48.128;11.476;2024-02-14T03:59:57;3.60;99.90
12166;DHT22;6146;48.128;11.476;2024-02-14T04:02:22;3.60;99.90
12166;DHT22;6146;48.128;11.476;2024-02-14T04:04:53;3.50;99.90
12166;DHT22;6146;48.128;11.476;2024-02-14T04:07:19;3.50;99.90
12166;DHT22;6146;48.128;11.476;2024-02-14T04:09:44;3.50;99.90
12166;DHT22;6146;48.128;11.476;2024-02-14T04:12:10;3.50;99.90
12166;DHT22;6146;48.128;11.476;2024-02-14T04:14:36;3.40;99.90
12166;DHT22;6146;48.128;11.476;2024-02-14T04:17:03;3.40;99.90
12166;DHT22;6146;48.128;11.476;2024-02-14T04:19:29;3.30;99.90
12166;DHT22;6146;48.128;11.476;2024-02-14T04:21:54;3.20;99.90
12166;DHT22;6146;48.128;11.476;2024-02-14T04:24:20;3.20;99.90
12166;DHT22;6146;48.128;11.476;2024-02-14T04:26:46;3.20;99.90
12166;DHT22;6146;48.128;11.476;2024-02-14T04:29:13;3.20;99.90
12166;DHT22;6146;48.128;11.476;2024-02-14T04:31:39;3.10;99.90
12166;DHT22;6146;48.128;11.476;2024-02-14T04:34:04;3.10;99.90
12166;DHT22;6146;48.128;11.476;2024-02-14T04:36:33;3.10;99.90
12166;DHT22;6146;48.128;11.476;2024-02-14T04:39:01;3.20;99.90
12166;DHT22;6146;48.128;11.476;2024-02-14T04:41:26;3.20;99.90
12166;DHT22;6146;48.128;11.476;2024-02-14T04:43:52;3.30;99.90
12166;DHT22;6146;48.128;11.476;2024-02-14T04:46:17;3.30;99.90
12166;DHT22;6146;48.128;11.476;2024-02-14T04:48:43;3.40;99.90
12166;DHT22;6146;48.128;11.476;2024-02-14T04:51:09;3.40;99.90
12166;DHT22;6146;48.128;11.476;2024-02-14T04:53:34;3.50;99.90
12166;DHT22;6146;48.128;11.476;2024-02-14T04:56:01;3.50;99.90
12166;DHT22;6146;48.128;11.476;2024-02-14T04:58:26;3.60;99.90
12166;DHT22;6146;48.128;11.476;2024-02-14T05:00:52;3.70;99.90
12166;DHT22;6146;48.128;11.476;2024-02-14T05:03:18;2.90;99.90
12166;DHT22;6146;48.128;11.476;2024-02-14T05:05:44;3.80;99.90
12166;DHT22;6146;48.128;11.476;2024-02-14T05:08:09;3.80;99.90
12166;DHT22;6146;48.128;11.476;2024-02-14T05:10:35;3.80;99.90
12166;DHT22;6146;48.128;11.476;2024-02-14T05:13:00;3.80;99.90
12166;DHT22;6146;48.128;11.476;2024-02-14T05:15:26;3.80;99.90
12166;DHT22;6146;48.128;11.476;2024-02-14T05:17:52;3.80;99.90
12166;DHT22;6146;48.128;11.476;2024-02-14T05:20:18;3.80;99.90
12166;DHT22;6146;48.128;11.476;2024-02-14T05:22:43;3.80;99.90
12166;DHT22;6146;48.128;11.476;2024-02-14T05:25:09;3.80;99.90
12166;DHT22;6146;48.128;11.476;2024-02-14T05:27:35;3.80;99.90
12166;DHT22;6146;48.128;11.476;2024-02-14T05:30:02;3.80;99.90
12166;DHT22;6146;48.128;11.476;2024-02-14T05:32:34;3.80;99.90
12166;DHT22;6146;48.128;11.476;2024-02-14T05:34:59;3.80;99.90
12166;DHT22;6146;48.128;11.476;2024-02-14T05:37:25;3.90;99.90
12166;DHT22;6146;48.128;11.476;2024-02-14T05:39:54;3.90;99.90
12166;DHT22;6146;48.128;11.476;2024-02-14T05:42:20;4.00;99.90
12166;DHT22;6146;48.128;11.476;2024-02-14T05:44:47;4.00;99.90
12166;DHT22;6146;48.128;11.476;2024-02-14T05:47:12;4.10;99.90
12166;DHT22;6146;48.128;11.476;2024-02-14T05:49:39;4.00;99.90
12166;DHT22;6146;48.128;11.476;2024-02-14T05:52:09;4.10;99.90
12166;DHT22;6146;48.128;11.476;2024-02-14T05:54:34;4.10;99.90
12166;DHT22;6146;48.128;11.476;2024-02-14T05:57:00;4.20;99.90
12166;DHT22;6146;48.128;11.476;2024-02-14T05:59:29;4.20;99.90
12166;DHT22;6146;48.128;11.476;2024-02-14T06:01:56;4.10;99.90
12166;DHT22;6146;48.128;11.476;2024-02-14T06:04:21;4.10;99.90
12166;DHT22;6146;48.128;11.476;2024-02-14T06:06:47;4.20;99.90
12166;DHT22;6146;48.128;11.476;2024-02-14T06:09:12;4.20;99.90
12166;DHT22;6146;48.128;11.476;2024-02-14T06:11:38;4.20;99.90
12166;DHT22;6146;48.128;11.476;2024-02-14T06:14:07;4.20;99.90
12166;DHT22;6146;48.128;11.476;2024-02-14T06:16:34;4.30;99.90
12166;DHT22;6146;48.128;11.476;2024-02-14T06:19:00;4.30;99.90
12166;DHT22;6146;48.128;11.476;2024-02-14T06:21:26;4.40;99.90
12166;DHT22;6146;48.128;11.476;2024-02-14T06:23:52;4.50;99.90
12166;DHT22;6146;48.128;11.476;2024-02-14T06:26:17;4.50;99.90
12166;DHT22;6146;48.128;11.476;2024-02-14T06:28:44;4.50;99.90
12166;DHT22;6146;48.128;11.476;2024-02-14T06:31:10;4.50;99.90
12166;DHT22;6146;48.128;11.476;2024-02-14T06:33:36;4.60;99.90
12166;DHT22;6146;48.128;11.476;2024-02-14T06:36:01;4.60;99.90
12166;DHT22;6146;48.128;11.476;2024-02-14T06:38:27;4.60;99.90
12166;DHT22;6146;48.128;11.476;2024-02-14T06:40:53;4.70;99.90
12166;DHT22;6146;48.128;11.476;2024-02-14T06:43:18;4.70;99.90
12166;DHT22;6146;48.128;11.476;2024-02-14T06:45:45;4.70;99.90
12166;DHT22;6146;48.128;11.476;2024-02-14T06:48:10;4.70;99.90
12166;DHT22;6146;48.128;11.476;2024-02-14T06:50:36;4.80;99.90
12166;DHT22;6146;48.128;11.476;2024-02-14T06:53:01;4.90;99.90
12166;DHT22;6146;48.128;11.476;2024-02-14T06:55:27;4.90;99.90
12166;DHT22;6146;48.128;11.476;2024-02-14T06:57:54;5.00;99.90
12166;DHT22;6146;48.128;11.476;2024-02-14T07:00:20;5.10;99.90
12166;DHT22;6146;48.128;11.476;2024-02-14T07:02:45;5.20;99.90
12166;DHT22;6146;48.128;11.476;2024-02-14T07:05:13;5.30;99.90
12166;DHT22;6146;48.128;11.476;2024-02-14T07:07:40;5.30;99.90
12166;DHT22;6146;48.128;11.476;2024-02-14T07:10:06;5.40;99.90
12166;DHT22;6146;48.128;11.476;2024-02-14T07:12:32;5.40;99.90
12166;DHT22;6146;48.128;11.476;2024-02-14T07:14:58;5.50;99.90
12166;DHT22;6146;48.128;11.476;2024-02-14T07:17:23;5.40;99.90
12166;DHT22;6146;48.128;11.476;2024-02-14T07:19:49;5.50;99.90
12166;DHT22;6146;48.128;11.476;2024-02-14T07:22:15;5.50;99.90
12166;DHT22;6146;48.128;11.476;2024-02-14T07:24:41;5.50;99.90
12166;DHT22;6146;48.128;11.476;2024-02-14T07:27:08;5.50;99.90
12166;DHT22;6146;48.128;11.476;2024-02-14T07:29:33;5.50;99.90
12166;DHT22;6146;48.128;11.476;2024-02-14T07:32:02;5.50;99.90
12166;DHT22;6146;48.128;11.476;2024-02-14T07:34:27;5.60;99.90
12166;DHT22;6146;48.128;11.476;2024-02-14T07:36:53;5.60;99.90
12166;DHT22;6146;48.128;11.476;2024-02-14T07:39:18;5.70;99.90
12166;DHT22;6146;48.128;11.476;2024-02-14T07:41:44;5.80;99.90
12166;DHT22;6146;48.128;11.476;2024-02-14T07:44:09;5.90;99.90
12166;DHT22;6146;48.128;11.476;2024-02-14T07:46:35;6.10;99.90
12166;DHT22;6146;48.128;11.476;2024-02-14T07:49:01;6.30;99.90
12166;DHT22;6146;48.128;11.476;2024-02-14T07:51:26;6.30;99.90
12166;DHT22;6146;48.128;11.476;2024-02-14T07:53:54;6.40;99.90
12166;DHT22;6146;48.128;11.476;2024-02-14T07:56:19;6.40;99.90
12166;DHT22;6146;48.128;11.476;2024-02-14T07:58:45;6.40;99.90
12166;DHT22;6146;48.128;11.476;2024-02-14T08:01:11;6.40;99.90
12166;DHT22;6146;48.128;11.476;2024-02-14T08:03:36;6.50;99.90
12166;DHT22;6146;48.128;11.476;2024-02-14T08:06:02;6.60;99.90
12166;DHT22;6146;48.128;11.476;2024-02-14T08:08:28;6.70;99.90
12166;DHT22;6146;48.128;11.476;2024-02-14T08:10:53;6.70;99.90
12166;DHT22;6146;48.128;11.476;2024-02-14T08:13:20;6.80;99.90
12166;DHT22;6146;48.128;11.476;2024-02-14T08:15:45;7.00;99.90
12166;DHT22;6146;48.128;11.476;2024-02-14T08:18:11;7.10;99.90
12166;DHT22;6146;48.128;11.476;2024-02-14T08:20:37;7.10;99.90
12166;DHT22;6146;48.128;11.476;2024-02-14T08:23:03;7.20;99.90
12166;DHT22;6146;48.128;11.476;2024-02-14T08:25:29;7.20;99.90
12166;DHT22;6146;48.128;11.476;2024-02-14T08:27:55;7.30;99.90
12166;DHT22;6146;48.128;11.476;2024-02-14T08:30:21;7.40;99.90
12166;DHT22;6146;48.128;11.476;2024-02-14T08:32:46;7.40;99.90
12166;DHT22;6146;48.128;11.476;2024-02-14T08:35:12;7.60;99.90
12166;DHT22;6146;48.128;11.476;2024-02-14T08:37:39;7.80;99.90
12166;DHT22;6146;48.128;11.476;2024-02-14T08:40:06;7.80;99.90
12166;DHT22;6146;48.128;11.476;2024-02-14T08:42:35;8.10;99.90
12166;DHT22;6146;48.128;11.476;2024-02-14T08:45:01;8.40;99.90
12166;DHT22;6146;48.128;11.476;2024-02-14T08:47:26;8.80;99.90
12166;DHT22;6146;48.128;11.476;2024-02-14T08:49:52;9.20;99.90
12166;DHT22;6146;48.128;11.476;2024-02-14T08:52:18;9.20;99.90
12166;DHT22;6146;48.128;11.476;2024-02-14T08:54:44;9.30;99.90
12166;DHT22;6146;48.128;11.476;2024-02-14T08:57:09;9.60;99.90
12166;DHT22;6146;48.128;11.476;2024-02-14T08:59:35;10.50;99.90
12166;DHT22;6146;48.128;11.476;2024-02-14T09:02:00;11.70;99.90
12166;DHT22;6146;48.128;11.476;2024-02-14T09:04:27;12.30;99.90
12166;DHT22;6146;48.128;11.476;2024-02-14T09:06:53;12.50;99.90
12166;DHT22;6146;48.128;11.476;2024-02-14T09:09:18;14.10;99.90
12166;DHT22;6146;48.128;11.476;2024-02-14T09:11:45;16.10;96.10
12166;DHT22;6146;48.128;11.476;2024-02-14T09:14:12;17.30;90.50
12166;DHT22;6146;48.128;11.476;2024-02-14T09:16:38;17.60;87.80
12166;DHT22;6146;48.128;11.476;2024-02-14T09:19:04;17.70;83.60
12166;DHT22;6146;48.128;11.476;2024-02-14T09:21:35;17.30;82.40
12166;DHT22;6146;48.128;11.476;2024-02-14T09:24:01;16.50;81.70
12166;DHT22;6146;48.128;11.476;2024-02-14T09:26:28;15.80;86.30
12166;DHT22;6146;48.128;11.476;2024-02-14T09:28:55;15.30;83.90
12166;DHT22;6146;48.128;11.476;2024-02-14T09:31:21;14.70;85.20
12166;DHT22;6146;48.128;11.476;2024-02-14T09:33:49;14.20;87.20
12166;DHT22;6146;48.128;11.476;2024-02-14T09:36:15;13.90;88.50
12166;DHT22;6146;48.128;11.476;2024-02-14T09:38:42;14.10;89.60
12166;DHT22;6146;48.128;11.476;2024-02-14T09:42:13;14.20;87.70
12166;DHT22;6146;48.128;11.476;2024-02-14T09:44:20;13.70;90.70
12166;DHT22;6146;48.128;11.476;2024-02-14T09:46:47;13.30;91.40
12166;DHT22;6146;48.128;11.476;2024-02-14T09:49:14;13.00;91.10
12166;DHT22;6146;48.128;11.476;2024-02-14T09:51:43;12.80;91.00
12166;DHT22;6146;48.128;11.476;2024-02-14T09:54:10;12.80;91.80
12166;DHT22;6146;48.128;11.476;2024-02-14T09:56:36;12.70;91.70
12166;DHT22;6146;48.128;11.476;2024-02-14T09:59:02;12.60;92.20
12166;DHT22;6146;48.128;11.476;2024-02-14T10:01:28;12.60;92.10
12166;DHT22;6146;48.128;11.476;2024-02-14T10:03:54;12.50;91.80
12166;DHT22;6146;48.128;11.476;2024-02-14T10:06:20;12.50;92.50
12166;DHT22;6146;48.128;11.476;2024-02-14T10:08:47;12.60;91.90
12166;DHT22;6146;48.128;11.476;2024-02-14T10:11:14;13.10;92.30
12166;DHT22;6146;48.128;11.476;2024-02-14T10:13:41;14.10;90.20
12166;DHT22;6146;48.128;11.476;2024-02-14T10:16:06;15.10;88.70
12166;DHT22;6146;48.128;11.476;2024-02-14T10:18:34;15.70;85.20
12166;DHT22;6146;48.128;11.476;2024-02-14T10:20:59;17.00;82.90
12166;DHT22;6146;48.128;11.476;2024-02-14T10:23:27;18.10;78.40
12166;DHT22;6146;48.128;11.476;2024-02-14T10:25:53;18.50;77.60
12166;DHT22;6146;48.128;11.476;2024-02-14T10:28:20;18.80;73.30
12166;DHT22;6146;48.128;11.476;2024-02-14T10:30:47;18.80;75.10
12166;DHT22;6146;48.128;11.476;2024-02-14T10:33:15;18.70;73.80
12166;DHT22;6146;48.128;11.476;2024-02-14T10:35:42;19.10;74.50
12166;DHT22;6146;48.128;11.476;2024-02-14T10:38:08;19.70;70.70
12166;DHT22;6146;48.128;11.476;2024-02-14T10:40:36;21.40;67.40
12166;DHT22;6146;48.128;11.476;2024-02-14T10:43:05;22.80;61.60
12166;DHT22;6146;48.128;11.476;2024-02-14T10:45:30;23.10;57.90
12166;DHT22;6146;48.128;11.476;2024-02-14T10:47:57;22.40;57.30
12166;DHT22;6146;48.128;11.476;2024-02-14T10:50:28;21.60;60.70
12166;DHT22;6146;48.128;11.476;2024-02-14T10:52:57;22.00;60.10
12166;DHT22;6146;48.128;11.476;2024-02-14T10:55:25;22.30;59.40
12166;DHT22;6146;48.128;11.476;2024-02-14T10:57:55;22.20;57.90
12166;DHT22;6146;48.128;11.476;2024-02-14T11:00:22;20.60;60.80
12166;DHT22;6146;48.128;11.476;2024-02-14T11:02:49;20.30;60.90
12166;DHT22;6146;48.128;11.476;2024-02-14T11:05:19;19.70;61.40
12166;DHT22;6146;48.128;11.476;2024-02-14T11:07:47;19.20;63.40
12166;DHT22;6146;48.128;11.476;2024-02-14T11:10:15;17.90;63.30
12166;DHT22;6146;48.128;11.476;2024-02-14T11:12:41;18.20;66.80
12166;DHT22;6146;48.128;11.476;2024-02-14T11:15:20;17.40;67.70
12166;DHT22;6146;48.128;11.476;2024-02-14T11:17:47;17.10;69.50
12166;DHT22;6146;48.128;11.476;2024-02-14T11:20:21;17.10;71.70
12166;DHT22;6146;48.128;11.476;2024-02-14T11:22:54;17.30;71.10
12166;DHT22;6146;48.128;11.476;2024-02-14T11:25:27;17.20;72.50
12166;DHT22;6146;48.128;11.476;2024-02-14T11:27:53;16.90;72.90
12166;DHT22;6146;48.128;11.476;2024-02-14T11:30:34;16.70;74.10
12166;DHT22;6146;48.128;11.476;2024-02-14T11:33:12;16.20;75.70
12166;DHT22;6146;48.128;11.476;2024-02-14T11:35:41;16.00;77.10
12166;DHT22;6146;48.128;11.476;2024-02-14T11:38:08;15.80;77.40
12166;DHT22;6146;48.128;11.476;2024-02-14T11:40:35;15.70;77.80
12166;DHT22;6146;48.128;11.476;2024-02-14T11:43:01;15.80;79.20
12166;DHT22;6146;48.128;11.476;2024-02-14T11:45:27;15.60;77.80
12166;DHT22;6146;48.128;11.476;2024-02-14T11:47:54;15.50;79.40
12166;DHT22;6146;48.128;11.476;2024-02-14T11:50:21;15.40;80.30
12166;DHT22;6146;48.128;11.476;2024-02-14T11:52:46;15.30;79.70
12166;DHT22;6146;48.128;11.476;2024-02-14T11:55:12;15.50;80.90
12166;DHT22;6146;48.128;11.476;2024-02-14T11:57:41;15.40;81.00
12166;DHT22;6146;48.128;11.476;2024-02-14T12:00:08;15.50;80.50
12166;DHT22;6146;48.128;11.476;2024-02-14T12:02:33;15.50;80.80
12166;DHT22;6146;48.128;11.476;2024-02-14T12:04:59;15.80;80.30
12166;DHT22;6146;48.128;11.476;2024-02-14T12:07:25;16.00;82.00
12166;DHT22;6146;48.128;11.476;2024-02-14T12:09:51;16.20;79.20
12166;DHT22;6146;48.128;11.476;2024-02-14T12:12:17;16.40;78.90
12166;DHT22;6146;48.128;11.476;2024-02-14T12:14:45;16.40;79.80
12166;DHT22;6146;48.128;11.476;2024-02-14T12:17:16;16.80;78.90
12166;DHT22;6146;48.128;11.476;2024-02-14T12:19:44;16.90;77.80
12166;DHT22;6146;48.128;11.476;2024-02-14T12:22:10;17.00;77.70
12166;DHT22;6146;48.128;11.476;2024-02-14T12:24:44;17.10;77.50
12166;DHT22;6146;48.128;11.476;2024-02-14T12:27:10;16.90;75.80
12166;DHT22;6146;48.128;11.476;2024-02-14T12:29:35;16.50;76.30
12166;DHT22;6146;48.128;11.476;2024-02-14T12:32:09;16.20;77.70
12166;DHT22;6146;48.128;11.476;2024-02-14T12:34:34;16.00;78.50
12166;DHT22;6146;48.128;11.476;2024-02-14T12:37:00;15.90;78.90
12166;DHT22;6146;48.128;11.476;2024-02-14T12:39:27;15.90;80.10
12166;DHT22;6146;48.128;11.476;2024-02-14T12:41:52;16.80;78.40
12166;DHT22;6146;48.128;11.476;2024-02-14T12:44:18;17.30;74.90
12166;DHT22;6146;48.128;11.476;2024-02-14T12:46:44;17.10;74.50
12166;DHT22;6146;48.128;11.476;2024-02-14T12:49:09;16.70;75.90
12166;DHT22;6146;48.128;11.476;2024-02-14T12:51:36;16.50;75.90
12166;DHT22;6146;48.128;11.476;2024-02-14T12:54:04;16.00;82.00
12166;DHT22;6146;48.128;11.476;2024-02-14T12:56:30;15.60;86.10
12166;DHT22;6146;48.128;11.476;2024-02-14T12:58:57;15.30;87.70
12166;DHT22;6146;48.128;11.476;2024-02-14T13:01:23;14.90;91.30
12166;DHT22;6146;48.128;11.476;2024-02-14T13:03:49;14.70;93.30
12166;DHT22;6146;48.128;11.476;2024-02-14T13:06:15;14.60;94.30
12166;DHT22;6146;48.128;11.476;2024-02-14T13:08:41;14.70;94.40
12166;DHT22;6146;48.128;11.476;2024-02-14T13:11:07;14.90;95.50
12166;DHT22;6146;48.128;11.476;2024-02-14T13:13:34;14.90;93.90
12166;DHT22;6146;48.128;11.476;2024-02-14T13:16:00;15.10;93.90
12166;DHT22;6146;48.128;11.476;2024-02-14T13:18:25;15.30;92.90
12166;DHT22;6146;48.128;11.476;2024-02-14T13:20:51;15.50;93.20
12166;DHT22;6146;48.128;11.476;2024-02-14T13:23:27;15.60;92.20
12166;DHT22;6146;48.128;11.476;2024-02-14T13:25:53;15.60;91.90
12166;DHT22;6146;48.128;11.476;2024-02-14T13:28:18;15.70;92.40
12166;DHT22;6146;48.128;11.476;2024-02-14T13:30:44;15.70;92.20
12166;DHT22;6146;48.128;11.476;2024-02-14T13:33:13;15.60;92.60
12166;DHT22;6146;48.128;11.476;2024-02-14T13:35:38;15.70;92.50
12166;DHT22;6146;48.128;11.476;2024-02-14T13:38:05;15.60;92.40
12166;DHT22;6146;48.128;11.476;2024-02-14T13:40:31;15.30;92.40
12166;DHT22;6146;48.128;11.476;2024-02-14T13:42:57;15.10;92.00
12166;DHT22;6146;48.128;11.476;2024-02-14T13:45:24;15.10;92.80
12166;DHT22;6146;48.128;11.476;2024-02-14T13:47:50;15.70;92.70
12166;DHT22;6146;48.128;11.476;2024-02-14T13:50:16;16.00;91.70
12166;DHT22;6146;48.128;11.476;2024-02-14T13:52:41;16.30;91.50
12166;DHT22;6146;48.128;11.476;2024-02-14T13:55:07;16.90;90.30
12166;DHT22;6146;48.128;11.476;2024-02-14T13:57:39;17.90;86.60
12166;DHT22;6146;48.128;11.476;2024-02-14T14:00:08;18.10;85.40
12166;DHT22;6146;48.128;11.476;2024-02-14T14:02:37;17.90;84.10
12166;DHT22;6146;48.128;11.476;2024-02-14T14:05:07;17.50;85.40
12166;DHT22;6146;48.128;11.476;2024-02-14T14:07:35;17.20;88.00
12166;DHT22;6146;48.128;11.476;2024-02-14T14:10:03;16.90;88.30
12166;DHT22;6146;48.128;11.476;2024-02-14T14:12:28;16.60;88.40
12166;DHT22;6146;48.128;11.476;2024-02-14T14:14:54;16.80;90.00
12166;DHT22;6146;48.128;11.476;2024-02-14T14:17:19;17.00;89.40
12166;DHT22;6146;48.128;11.476;2024-02-14T14:19:45;17.10;88.60
12166;DHT22;6146;48.128;11.476;2024-02-14T14:22:11;17.20;88.00
12166;DHT22;6146;48.128;11.476;2024-02-14T14:24:36;16.90;88.70
12166;DHT22;6146;48.128;11.476;2024-02-14T14:27:02;16.60;89.70
12166;DHT22;6146;48.128;11.476;2024-02-14T14:29:27;16.60;90.20
12166;DHT22;6146;48.128;11.476;2024-02-14T14:31:53;16.60;90.40
12166;DHT22;6146;48.128;11.476;2024-02-14T14:34:19;16.60;90.80
12166;DHT22;6146;48.128;11.476;2024-02-14T14:36:45;16.50;90.90
12166;DHT22;6146;48.128;11.476;2024-02-14T14:39:11;16.70;91.10
12166;DHT22;6146;48.128;11.476;2024-02-14T14:41:37;16.60;91.20
12166;DHT22;6146;48.128;11.476;2024-02-14T14:44:03;16.30;91.50
12166;DHT22;6146;48.128;11.476;2024-02-14T14:46:29;16.10;92.10
12166;DHT22;6146;48.128;11.476;2024-02-14T14:48:57;16.20;92.30
12166;DHT22;6146;48.128;11.476;2024-02-14T14:51:22;16.30;92.40
12166;DHT22;6146;48.128;11.476;2024-02-14T14:53:48;16.30;92.30
12166;DHT22;6146;48.128;11.476;2024-02-14T14:56:14;16.10;92.50
12166;DHT22;6146;48.128;11.476;2024-02-14T14:58:39;15.70;93.10
12166;DHT22;6146;48.128;11.476;2024-02-14T15:01:07;15.50;94.00
12166;DHT22;6146;48.128;11.476;2024-02-14T15:03:34;15.50;94.40
12166;DHT22;6146;48.128;11.476;2024-02-14T15:06:00;15.30;94.60
12166;DHT22;6146;48.128;11.476;2024-02-14T15:08:26;15.00;94.70
12166;DHT22;6146;48.128;11.476;2024-02-14T15:10:53;14.60;95.70
12166;DHT22;6146;48.128;11.476;2024-02-14T15:13:23;14.40;96.60
12166;DHT22;6146;48.128;11.476;2024-02-14T15:15:49;14.10;97.00
12166;DHT22;6146;48.128;11.476;2024-02-14T15:18:15;13.90;97.60
12166;DHT22;6146;48.128;11.476;2024-02-14T15:20:40;13.50;98.30
12166;DHT22;6146;48.128;11.476;2024-02-14T15:23:07;13.40;98.80
12166;DHT22;6146;48.128;11.476;2024-02-14T15:25:33;13.30;99.40
12166;DHT22;6146;48.128;11.476;2024-02-14T15:27:59;13.30;99.90
12166;DHT22;6146;48.128;11.476;2024-02-14T15:30:25;13.30;99.90
12166;DHT22;6146;48.128;11.476;2024-02-14T15:33:10;13.40;99.90
12166;DHT22;6146;48.128;11.476;2024-02-14T15:35:57;13.30;99.90